sensor_id;sensor_type;location;lat;lon;timestamp;pressure;altitude;pressure_sealevel;temperature;humidity
19890;BME280;10107;51.198;6.824;2023-05-07T00:03:17;-21713.09;;;15.11;100.00
19890;BME280;10107;51.198;6.824;2023-05-07T00:07:20;-21712.31;;;15.08;100.00
19890;BME280;10107;51.198;6.824;2023-05-07T00:11:22;-21711.94;;;15.06;100.00
19890;BME280;10107;51.198;6.824;2023-05-07T00:15:24;-21711.66;;;15.05;100.00
19890;BME280;10107;51.198;6.824;2023-05-07T00:19:25;-21710.88;;;15.02;100.00
19890;BME280;10107;51.198;6.824;2023-05-07T00:23:28;-21710.75;;;15.01;100.00
19890;BME280;10107;51.198;6.824;2023-05-07T00:27:30;-21709.56;;;14.97;100.00
19890;BME280;10107;51.198;6.824;2023-05-07T00:31:32;-21708.25;;;14.92;100.00
19890;BME280;10107;51.198;6.824;2023-05-07T00:35:33;-21707.19;;;14.88;100.00
19890;BME280;10107;51.198;6.824;2023-05-07T00:39:36;-21705.75;;;14.82;100.00
19890;BME280;10107;51.198;6.824;2023-05-07T00:43:38;-21704.69;;;14.78;100.00
19890;BME280;10107;51.198;6.824;2023-05-07T00:47:40;-21703.66;;;14.74;100.00
19890;BME280;10107;51.198;6.824;2023-05-07T00:51:42;-21703.13;;;14.72;100.00
19890;BME280;10107;51.198;6.824;2023-05-07T00:55:45;-21702.72;;;14.70;100.00
19890;BME280;10107;51.198;6.824;2023-05-07T00:59:48;-21702.59;;;14.70;100.00
19890;BME280;10107;51.198;6.824;2023-05-07T01:03:50;-21702.59;;;14.70;100.00
19890;BME280;10107;51.198;6.824;2023-05-07T01:07:53;-21702.59;;;14.70;100.00
19890;BME280;10107;51.198;6.824;2023-05-07T01:11:58;-21702.06;;;14.68;100.00
19890;BME280;10107;51.198;6.824;2023-05-07T01:16:00;-21701.41;;;14.65;100.00
19890;BME280;10107;51.198;6.824;2023-05-07T01:20:05;-21700.88;;;14.63;100.00
19890;BME280;10107;51.198;6.824;2023-05-07T01:24:09;-21698.38;;;14.53;100.00
19890;BME280;10107;51.198;6.824;2023-05-07T01:28:11;-21696.41;;;14.45;100.00
19890;BME280;10107;51.198;6.824;2023-05-07T01:32:18;-21695.09;;;14.40;100.00
19890;BME280;10107;51.198;6.824;2023-05-07T01:36:23;-21694.16;;;14.37;100.00
19890;BME280;10107;51.198;6.824;2023-05-07T01:40:28;-21693.91;;;14.36;100.00
19890;BME280;10107;51.198;6.824;2023-05-07T01:44:30;-21693.25;;;14.33;100.00
19890;BME280;10107;51.198;6.824;2023-05-07T01:48:32;-21692.84;;;14.32;100.00
19890;BME280;10107;51.198;6.824;2023-05-07T01:52:35;-21692.06;;;14.29;100.00
19890;BME280;10107;51.198;6.824;2023-05-07T01:56:39;-21691.91;;;14.28;100.00
19890;BME280;10107;51.198;6.824;2023-05-07T02:00:40;-21690.88;;;14.24;100.00
19890;BME280;10107;51.198;6.824;2023-05-07T02:04:43;-21690.22;;;14.21;100.00
19890;BME280;10107;51.198;6.824;2023-05-07T02:08:46;-21689.81;;;14.20;100.00
19890;BME280;10107;51.198;6.824;2023-05-07T02:12:50;-21689.03;;;14.17;100.00
19890;BME280;10107;51.198;6.824;2023-05-07T02:16:52;-21689.03;;;14.17;100.00
19890;BME280;10107;51.198;6.824;2023-05-07T02:20:55;-21688.09;;;14.13;100.00
19890;BME280;10107;51.198;6.824;2023-05-07T02:24:57;-21686.78;;;14.08;100.00
19890;BME280;10107;51.198;6.824;2023-05-07T02:29:00;-21686.78;;;14.08;100.00
19890;BME280;10107;51.198;6.824;2023-05-07T02:33:02;-21686.00;;;14.05;100.00
19890;BME280;10107;51.198;6.824;2023-05-07T02:37:03;-21685.06;;;14.01;100.00
19890;BME280;10107;51.198;6.824;2023-05-07T02:41:05;-21684.03;;;13.97;100.00
19890;BME280;10107;51.198;6.824;2023-05-07T02:45:09;-21682.31;;;13.91;100.00
19890;BME280;10107;51.198;6.824;2023-05-07T02:49:12;-21681.25;;;13.86;100.00
19890;BME280;10107;51.198;6.824;2023-05-07T02:53:14;-21678.38;;;13.75;100.00
19890;BME280;10107;51.198;6.824;2023-05-07T02:57:16;-21676.66;;;13.69;100.00
19890;BME280;10107;51.198;6.824;2023-05-07T03:01:19;-21676.00;;;13.66;100.00
19890;BME280;10107;51.198;6.824;2023-05-07T03:05:28;-21675.84;;;13.65;100.00
19890;BME280;10107;51.198;6.824;2023-05-07T03:09:30;-21675.59;;;13.64;100.00
19890;BME280;10107;51.198;6.824;2023-05-07T03:13:32;-21675.47;;;13.64;100.00
19890;BME280;10107;51.198;6.824;2023-05-07T03:17:35;-21676.25;;;13.67;100.00
19890;BME280;10107;51.198;6.824;2023-05-07T03:21:37;-21677.03;;;13.70;100.00
19890;BME280;10107;51.198;6.824;2023-05-07T03:25:38;-21677.16;;;13.71;100.00
19890;BME280;10107;51.198;6.824;2023-05-07T03:29:40;-21677.03;;;13.70;100.00
19890;BME280;10107;51.198;6.824;2023-05-07T03:33:51;-21676.50;;;13.68;100.00
19890;BME280;10107;51.198;6.824;2023-05-07T03:37:53;-21676.25;;;13.67;100.00
19890;BME280;10107;51.198;6.824;2023-05-07T03:41:56;-21675.84;;;13.65;100.00
19890;BME280;10107;51.198;6.824;2023-05-07T03:45:58;-21675.19;;;13.63;100.00
19890;BME280;10107;51.198;6.824;2023-05-07T03:50:04;-21675.19;;;13.63;100.00
19890;BME280;10107;51.198;6.824;2023-05-07T03:54:06;-21675.19;;;13.63;100.00
19890;BME280;10107;51.198;6.824;2023-05-07T03:58:08;-21675.06;;;13.62;100.00
19890;BME280;10107;51.198;6.824;2023-05-07T04:02:11;-21674.94;;;13.62;100.00
19890;BME280;10107;51.198;6.824;2023-05-07T04:06:16;-21675.19;;;13.63;100.00
19890;BME280;10107;51.198;6.824;2023-05-07T04:10:21;-21676.25;;;13.67;100.00
19890;BME280;10107;51.198;6.824;2023-05-07T04:14:25;-21678.63;;;13.76;100.00
19890;BME280;10107;51.198;6.824;2023-05-07T04:18:28;-21681.53;;;13.88;100.00
19890;BME280;10107;51.198;6.824;2023-05-07T04:22:31;-21684.69;;;14.00;100.00
19890;BME280;10107;51.198;6.824;2023-05-07T04:26:33;-21686.91;;;14.09;100.00
19890;BME280;10107;51.198;6.824;2023-05-07T04:30:35;-21689.69;;;14.19;100.00
19890;BME280;10107;51.198;6.824;2023-05-07T04:34:39;-21692.31;;;14.30;100.00
19890;BME280;10107;51.198;6.824;2023-05-07T04:38:43;-21694.16;;;14.37;100.00
19890;BME280;10107;51.198;6.824;2023-05-07T04:42:45;-21696.00;;;14.44;100.00
19890;BME280;10107;51.198;6.824;2023-05-07T04:46:47;-21699.81;;;14.59;100.00
19890;BME280;10107;51.198;6.824;2023-05-07T04:50:50;-21703.25;;;14.72;100.00
19890;BME280;10107;51.198;6.824;2023-05-07T04:54:54;-21706.94;;;14.87;100.00
19890;BME280;10107;51.198;6.824;2023-05-07T04:58:56;-21710.88;;;15.02;100.00
19890;BME280;10107;51.198;6.824;2023-05-07T05:02:58;-21714.16;;;15.15;100.00
19890;BME280;10107;51.198;6.824;2023-05-07T05:07:01;-21714.03;;;15.14;100.00
19890;BME280;10107;51.198;6.824;2023-05-07T05:11:05;-21717.84;;;15.29;100.00
19890;BME280;10107;51.198;6.824;2023-05-07T05:15:11;-21721.91;;;15.45;100.00
19890;BME280;10107;51.198;6.824;2023-05-07T05:19:13;-21722.56;;;15.48;100.00
19890;BME280;10107;51.198;6.824;2023-05-07T05:23:15;-21724.69;;;15.56;100.00
19890;BME280;10107;51.198;6.824;2023-05-07T05:27:19;-21728.34;;;15.70;100.00
19890;BME280;10107;51.198;6.824;2023-05-07T05:31:21;-21731.78;;;15.83;100.00
19890;BME280;10107;51.198;6.824;2023-05-07T05:35:24;-21737.56;;;16.06;100.00
19890;BME280;10107;51.198;6.824;2023-05-07T05:39:26;-21743.59;;;16.30;100.00
19890;BME280;10107;51.198;6.824;2023-05-07T05:43:29;-21748.19;;;16.48;100.00
19890;BME280;10107;51.198;6.824;2023-05-07T05:47:30;-21749.75;;;16.54;100.00
19890;BME280;10107;51.198;6.824;2023-05-07T05:51:32;-21750.53;;;16.57;100.00
19890;BME280;10107;51.198;6.824;2023-05-07T05:55:34;-21753.28;;;16.68;100.00
19890;BME280;10107;51.198;6.824;2023-05-07T05:59:37;-21750.66;;;16.57;100.00
19890;BME280;10107;51.198;6.824;2023-05-07T06:03:39;-21750.81;;;16.58;100.00
19890;BME280;10107;51.198;6.824;2023-05-07T06:07:47;-21752.78;;;16.66;100.00
19890;BME280;10107;51.198;6.824;2023-05-07T06:11:49;-21757.09;;;16.82;100.00
19890;BME280;10107;51.198;6.824;2023-05-07T06:15:52;-21762.88;;;17.05;100.00
19890;BME280;10107;51.198;6.824;2023-05-07T06:19:54;-21764.31;;;17.11;100.00
19890;BME280;10107;51.198;6.824;2023-05-07T06:23:56;-21767.84;;;17.25;100.00
19890;BME280;10107;51.198;6.824;2023-05-07T06:27:58;-21771.91;;;17.40;100.00
19890;BME280;10107;51.198;6.824;2023-05-07T06:32:08;-21779.38;;;17.70;100.00
19890;BME280;10107;51.198;6.824;2023-05-07T06:36:14;-21787.09;;;18.00;100.00
19890;BME280;10107;51.198;6.824;2023-05-07T06:40:16;-21797.94;;;18.43;100.00
19890;BME280;10107;51.198;6.824;2023-05-07T06:44:20;-21813.63;;;19.04;100.00
19890;BME280;10107;51.198;6.824;2023-05-07T06:48:33;-21833.06;;;19.81;95.08
19890;BME280;10107;51.198;6.824;2023-05-07T06:52:39;-21850.94;;;20.51;90.06
19890;BME280;10107;51.198;6.824;2023-05-07T06:56:41;-21864.09;;;21.03;86.64
19890;BME280;10107;51.198;6.824;2023-05-07T07:00:43;-21872.94;;;21.38;84.15
19890;BME280;10107;51.198;6.824;2023-05-07T07:04:47;-21893.84;;;22.20;76.82
19890;BME280;10107;51.198;6.824;2023-05-07T07:08:49;-21942.97;;;24.15;69.24
19890;BME280;10107;51.198;6.824;2023-05-07T07:12:52;-21999.41;;;26.39;59.95
19890;BME280;10107;51.198;6.824;2023-05-07T07:16:55;-22001.47;;;26.47;57.64
19890;BME280;10107;51.198;6.824;2023-05-07T07:21:00;-22028.75;;;27.56;52.57
19890;BME280;10107;51.198;6.824;2023-05-07T07:25:02;-22020.25;;;27.22;53.54
19890;BME280;10107;51.198;6.824;2023-05-07T07:29:04;-22069.81;;;29.20;47.97
19890;BME280;10107;51.198;6.824;2023-05-07T07:33:07;-22098.47;;;30.35;40.53
19890;BME280;10107;51.198;6.824;2023-05-07T07:37:13;-22022.44;;;27.31;46.43
19890;BME280;10107;51.198;6.824;2023-05-07T07:41:15;-21968.06;;;25.14;53.51
19890;BME280;10107;51.198;6.824;2023-05-07T07:45:18;-21950.59;;;24.45;56.02
19890;BME280;10107;51.198;6.824;2023-05-07T07:49:22;-21982.25;;;25.71;52.19
19890;BME280;10107;51.198;6.824;2023-05-07T07:53:25;-21989.47;;;25.99;52.79
19890;BME280;10107;51.198;6.824;2023-05-07T07:57:27;-21999.66;;;26.40;49.24
19890;BME280;10107;51.198;6.824;2023-05-07T08:01:30;-22008.16;;;26.74;48.63
19890;BME280;10107;51.198;6.824;2023-05-07T08:05:32;-22028.34;;;27.54;46.95
19890;BME280;10107;51.198;6.824;2023-05-07T08:09:36;-22035.81;;;27.84;44.39
19890;BME280;10107;51.198;6.824;2023-05-07T08:13:39;-22040.31;;;28.02;45.79
19890;BME280;10107;51.198;6.824;2023-05-07T08:17:41;-22063.78;;;28.96;43.24
19890;BME280;10107;51.198;6.824;2023-05-07T08:21:43;-22062.38;;;28.90;43.35
19890;BME280;10107;51.198;6.824;2023-05-07T08:25:47;-22051.22;;;28.46;43.56
19890;BME280;10107;51.198;6.824;2023-05-07T08:29:50;-22039.03;;;27.97;44.53
19890;BME280;10107;51.198;6.824;2023-05-07T08:33:54;-22028.47;;;27.55;46.78
19890;BME280;10107;51.198;6.824;2023-05-07T08:37:56;-22059.94;;;28.80;44.65
19890;BME280;10107;51.198;6.824;2023-05-07T08:42:00;-22089.38;;;29.98;41.45
19890;BME280;10107;51.198;6.824;2023-05-07T08:46:09;-22143.38;;;32.15;37.65
19890;BME280;10107;51.198;6.824;2023-05-07T08:50:15;-22115.06;;;31.02;37.49
19890;BME280;10107;51.198;6.824;2023-05-07T08:54:17;-22117.63;;;31.12;37.05
19890;BME280;10107;51.198;6.824;2023-05-07T08:58:21;-22126.81;;;31.49;36.93
19890;BME280;10107;51.198;6.824;2023-05-07T09:02:24;-22153.41;;;32.56;35.03
19890;BME280;10107;51.198;6.824;2023-05-07T09:06:28;-22152.28;;;32.51;34.29
19890;BME280;10107;51.198;6.824;2023-05-07T09:10:33;-22141.97;;;32.10;35.68
19890;BME280;10107;51.198;6.824;2023-05-07T09:14:37;-22087.72;;;29.92;37.94
19890;BME280;10107;51.198;6.824;2023-05-07T09:18:43;-22053.28;;;28.54;39.24
19890;BME280;10107;51.198;6.824;2023-05-07T09:22:48;-22029.13;;;27.57;42.30
19890;BME280;10107;51.198;6.824;2023-05-07T09:26:51;-22024.38;;;27.38;43.30
19890;BME280;10107;51.198;6.824;2023-05-07T09:30:55;-22005.06;;;26.61;44.55
19890;BME280;10107;51.198;6.824;2023-05-07T09:34:57;-21990.38;;;26.03;45.86
19890;BME280;10107;51.198;6.824;2023-05-07T09:39:00;-21992.44;;;26.11;46.02
19890;BME280;10107;51.198;6.824;2023-05-07T09:43:09;-22005.34;;;26.62;45.93
19890;BME280;10107;51.198;6.824;2023-05-07T09:47:19;-22024.00;;;27.37;43.07
19890;BME280;10107;51.198;6.824;2023-05-07T09:51:28;-22066.47;;;29.07;38.92
19890;BME280;10107;51.198;6.824;2023-05-07T09:55:33;-22081.19;;;29.66;37.57
19890;BME280;10107;51.198;6.824;2023-05-07T09:59:37;-22057.00;;;28.69;39.28
19890;BME280;10107;51.198;6.824;2023-05-07T10:03:44;-22113.03;;;30.93;36.34
19890;BME280;10107;51.198;6.824;2023-05-07T10:07:48;-22158.75;;;32.78;33.93
19890;BME280;10107;51.198;6.824;2023-05-07T10:11:51;-22197.47;;;34.34;29.95
19890;BME280;10107;51.198;6.824;2023-05-07T10:15:55;-22201.91;;;34.52;31.43
19890;BME280;10107;51.198;6.824;2023-05-07T10:20:00;-22243.63;;;36.21;28.52
19890;BME280;10107;51.198;6.824;2023-05-07T10:24:04;-22223.94;;;35.41;28.23
19890;BME280;10107;51.198;6.824;2023-05-07T10:28:11;-22180.09;;;33.64;29.81
19890;BME280;10107;51.198;6.824;2023-05-07T10:32:33;-22147.69;;;32.33;31.12
19890;BME280;10107;51.198;6.824;2023-05-07T10:36:39;-22122.97;;;31.33;32.56
19890;BME280;10107;51.198;6.824;2023-05-07T10:40:42;-22120.81;;;31.25;33.16
19890;BME280;10107;51.198;6.824;2023-05-07T10:44:44;-22131.13;;;31.66;33.14
19890;BME280;10107;51.198;6.824;2023-05-07T10:49:07;-22137.00;;;31.90;31.77
19890;BME280;10107;51.198;6.824;2023-05-07T10:53:32;-22132.53;;;31.72;32.06
19890;BME280;10107;51.198;6.824;2023-05-07T10:57:49;-22116.34;;;31.07;33.71
19890;BME280;10107;51.198;6.824;2023-05-07T11:01:58;-22100.13;;;30.42;34.57
19890;BME280;10107;51.198;6.824;2023-05-07T11:06:12;-22169.19;;;33.20;33.11
19890;BME280;10107;51.198;6.824;2023-05-07T11:10:53;-22204.06;;;34.61;28.94
19890;BME280;10107;51.198;6.824;2023-05-07T11:15:14;-22145.41;;;32.24;29.75
19890;BME280;10107;51.198;6.824;2023-05-07T11:19:17;-22093.59;;;30.15;34.49
19890;BME280;10107;51.198;6.824;2023-05-07T11:28:20;-22051.84;;;28.48;35.36
19890;BME280;10107;51.198;6.824;2023-05-07T11:32:35;-22048.25;;;28.34;36.66
19890;BME280;10107;51.198;6.824;2023-05-07T11:36:42;-22052.75;;;28.52;37.34
19890;BME280;10107;51.198;6.824;2023-05-07T11:40:49;-22055.69;;;28.63;37.41
19890;BME280;10107;51.198;6.824;2023-05-07T11:44:52;-22062.13;;;28.89;38.08
19890;BME280;10107;51.198;6.824;2023-05-07T11:48:54;-22065.19;;;29.01;36.18
19890;BME280;10107;51.198;6.824;2023-05-07T11:52:56;-22057.50;;;28.71;35.42
19890;BME280;10107;51.198;6.824;2023-05-07T11:56:57;-22047.22;;;28.30;37.71
19890;BME280;10107;51.198;6.824;2023-05-07T12:01:01;-22036.19;;;27.85;36.93
19890;BME280;10107;51.198;6.824;2023-05-07T12:05:03;-22033.63;;;27.75;38.94
19890;BME280;10107;51.198;6.824;2023-05-07T12:09:05;-22031.31;;;27.66;41.05
19890;BME280;10107;51.198;6.824;2023-05-07T12:13:15;-22025.28;;;27.42;40.80
19890;BME280;10107;51.198;6.824;2023-05-07T12:17:18;-22019.22;;;27.18;41.29
19890;BME280;10107;51.198;6.824;2023-05-07T12:21:20;-22011.00;;;26.85;43.84
19890;BME280;10107;51.198;6.824;2023-05-07T12:25:22;-22008.03;;;26.73;44.82
19890;BME280;10107;51.198;6.824;2023-05-07T12:29:24;-21999.66;;;26.40;44.66
19890;BME280;10107;51.198;6.824;2023-05-07T12:33:27;-21995.16;;;26.22;46.10
19890;BME280;10107;51.198;6.824;2023-05-07T12:37:31;-21992.69;;;26.12;45.73
19890;BME280;10107;51.198;6.824;2023-05-07T12:41:36;-21990.63;;;26.04;46.43
19890;BME280;10107;51.198;6.824;2023-05-07T12:45:54;-21983.53;;;25.76;46.15
19890;BME280;10107;51.198;6.824;2023-05-07T12:49:59;-21982.38;;;25.71;48.72
19890;BME280;10107;51.198;6.824;2023-05-07T12:54:00;-21978.53;;;25.56;46.72
19890;BME280;10107;51.198;6.824;2023-05-07T12:58:02;-21974.66;;;25.40;47.20
19890;BME280;10107;51.198;6.824;2023-05-07T13:02:04;-21970.66;;;25.24;48.42
19890;BME280;10107;51.198;6.824;2023-05-07T13:06:09;-21964.84;;;25.01;49.62
19890;BME280;10107;51.198;6.824;2023-05-07T13:10:12;-21957.84;;;24.74;52.58
19890;BME280;10107;51.198;6.824;2023-05-07T13:14:14;-21940.25;;;24.04;54.88
19890;BME280;10107;51.198;6.824;2023-05-07T13:18:16;-21930.69;;;23.66;57.27
19890;BME280;10107;51.198;6.824;2023-05-07T13:22:19;-21921.75;;;23.30;58.07
19890;BME280;10107;51.198;6.824;2023-05-07T13:26:21;-21910.06;;;22.84;60.39
19890;BME280;10107;51.198;6.824;2023-05-07T13:30:23;-21904.25;;;22.61;62.29
19890;BME280;10107;51.198;6.824;2023-05-07T13:34:25;-21893.97;;;22.21;65.29
19890;BME280;10107;51.198;6.824;2023-05-07T13:38:28;-21882.03;;;21.73;69.99
19890;BME280;10107;51.198;6.824;2023-05-07T13:42:29;-21872.03;;;21.34;73.05
19890;BME280;10107;51.198;6.824;2023-05-07T13:46:34;-21861.09;;;20.91;80.29
19890;BME280;10107;51.198;6.824;2023-05-07T13:50:36;-21845.47;;;20.29;97.20
19890;BME280;10107;51.198;6.824;2023-05-07T13:54:39;-21821.72;;;19.36;100.00
19890;BME280;10107;51.198;6.824;2023-05-07T13:58:40;-21802.25;;;18.59;100.00
19890;BME280;10107;51.198;6.824;2023-05-07T14:02:42;-21792.59;;;18.21;100.00
19890;BME280;10107;51.198;6.824;2023-05-07T14:06:44;-21742.66;;;16.26;100.00
19890;BME280;10107;51.198;6.824;2023-05-07T14:10:47;-21721.13;;;15.42;100.00
19890;BME280;10107;51.198;6.824;2023-05-07T14:14:49;-21721.53;;;15.43;100.00
19890;BME280;10107;51.198;6.824;2023-05-07T14:18:51;-21719.03;;;15.34;100.00
19890;BME280;10107;51.198;6.824;2023-05-07T14:22:52;-21719.81;;;15.37;100.00
19890;BME280;10107;51.198;6.824;2023-05-07T14:26:55;-21728.22;;;15.70;100.00
19890;BME280;10107;51.198;6.824;2023-05-07T14:30:57;-21728.09;;;15.69;100.00
19890;BME280;10107;51.198;6.824;2023-05-07T14:34:58;-21729.53;;;15.75;100.00
19890;BME280;10107;51.198;6.824;2023-05-07T14:39:00;-21733.75;;;15.91;100.00
19890;BME280;10107;51.198;6.824;2023-05-07T14:43:04;-21739.91;;;16.15;100.00
19890;BME280;10107;51.198;6.824;2023-05-07T14:47:06;-21743.97;;;16.31;100.00
19890;BME280;10107;51.198;6.824;2023-05-07T14:51:08;-21749.88;;;16.54;100.00
19890;BME280;10107;51.198;6.824;2023-05-07T14:55:10;-21754.59;;;16.73;100.00
19890;BME280;10107;51.198;6.824;2023-05-07T14:59:13;-21758.16;;;16.87;100.00
19890;BME280;10107;51.198;6.824;2023-05-07T15:03:17;-21766.00;;;17.17;100.00
19890;BME280;10107;51.198;6.824;2023-05-07T15:07:19;-21769.41;;;17.31;100.00
19890;BME280;10107;51.198;6.824;2023-05-07T15:11:21;-21772.81;;;17.44;100.00
19890;BME280;10107;51.198;6.824;2023-05-07T15:15:24;-21774.00;;;17.49;100.00
19890;BME280;10107;51.198;6.824;2023-05-07T15:19:28;-21773.34;;;17.46;100.00
19890;BME280;10107;51.198;6.824;2023-05-07T15:23:30;-21773.88;;;17.48;100.00
19890;BME280;10107;51.198;6.824;2023-05-07T15:27:32;-21774.91;;;17.52;100.00
19890;BME280;10107;51.198;6.824;2023-05-07T15:31:35;-21770.72;;;17.36;100.00
19890;BME280;10107;51.198;6.824;2023-05-07T15:35:38;-21771.50;;;17.39;100.00
19890;BME280;10107;51.198;6.824;2023-05-07T15:39:39;-21770.59;;;17.35;100.00
19890;BME280;10107;51.198;6.824;2023-05-07T15:43:44;-21774.53;;;17.51;100.00
19890;BME280;10107;51.198;6.824;2023-05-07T15:47:48;-21782.50;;;17.82;100.00
19890;BME280;10107;51.198;6.824;2023-05-07T15:51:50;-21785.66;;;17.94;100.00
19890;BME280;10107;51.198;6.824;2023-05-07T15:55:52;-21787.75;;;18.03;100.00
19890;BME280;10107;51.198;6.824;2023-05-07T15:59:54;-21793.38;;;18.25;100.00
19890;BME280;10107;51.198;6.824;2023-05-07T16:03:57;-21796.78;;;18.38;100.00
19890;BME280;10107;51.198;6.824;2023-05-07T16:07:58;-21797.81;;;18.42;100.00
19890;BME280;10107;51.198;6.824;2023-05-07T16:12:00;-21800.56;;;18.53;100.00
19890;BME280;10107;51.198;6.824;2023-05-07T16:16:02;-21800.44;;;18.52;100.00
19890;BME280;10107;51.198;6.824;2023-05-07T16:20:06;-21800.97;;;18.54;100.00
19890;BME280;10107;51.198;6.824;2023-05-07T16:24:09;-21802.41;;;18.60;100.00
19890;BME280;10107;51.198;6.824;2023-05-07T16:28:11;-21805.00;;;18.70;100.00
19890;BME280;10107;51.198;6.824;2023-05-07T16:32:12;-21808.81;;;18.85;100.00
19890;BME280;10107;51.198;6.824;2023-05-07T16:36:16;-21808.81;;;18.85;100.00
19890;BME280;10107;51.198;6.824;2023-05-07T16:40:17;-21810.50;;;18.92;100.00
19890;BME280;10107;51.198;6.824;2023-05-07T16:44:19;-21810.88;;;18.93;100.00
19890;BME280;10107;51.198;6.824;2023-05-07T16:48:20;-21810.09;;;18.90;100.00
19890;BME280;10107;51.198;6.824;2023-05-07T16:52:23;-21807.75;;;18.81;100.00
19890;BME280;10107;51.198;6.824;2023-05-07T16:56:25;-21803.56;;;18.65;100.00
19890;BME280;10107;51.198;6.824;2023-05-07T17:00:27;-21798.34;;;18.44;100.00
19890;BME280;10107;51.198;6.824;2023-05-07T17:04:28;-21797.16;;;18.39;100.00
19890;BME280;10107;51.198;6.824;2023-05-07T17:08:33;-21790.38;;;18.13;100.00
19890;BME280;10107;51.198;6.824;2023-05-07T17:12:34;-21789.31;;;18.09;100.00
19890;BME280;10107;51.198;6.824;2023-05-07T17:16:36;-21789.44;;;18.09;100.00
19890;BME280;10107;51.198;6.824;2023-05-07T17:20:38;-21790.50;;;18.13;100.00
19890;BME280;10107;51.198;6.824;2023-05-07T17:24:41;-21791.41;;;18.17;100.00
19890;BME280;10107;51.198;6.824;2023-05-07T17:28:43;-21787.88;;;18.03;100.00
19890;BME280;10107;51.198;6.824;2023-05-07T17:32:44;-21788.78;;;18.07;100.00
19890;BME280;10107;51.198;6.824;2023-05-07T17:36:46;-21782.78;;;17.83;100.00
19890;BME280;10107;51.198;6.824;2023-05-07T17:40:49;-21782.50;;;17.82;100.00
19890;BME280;10107;51.198;6.824;2023-05-07T17:44:51;-21784.22;;;17.89;100.00
19890;BME280;10107;51.198;6.824;2023-05-07T17:48:53;-21785.41;;;17.93;100.00
19890;BME280;10107;51.198;6.824;2023-05-07T17:52:56;-21785.25;;;17.93;100.00
19890;BME280;10107;51.198;6.824;2023-05-07T17:56:59;-21782.91;;;17.84;100.00
19890;BME280;10107;51.198;6.824;2023-05-07T18:01:01;-21780.16;;;17.73;100.00
19890;BME280;10107;51.198;6.824;2023-05-07T18:05:03;-21778.97;;;17.68;100.00
19890;BME280;10107;51.198;6.824;2023-05-07T18:09:05;-21775.97;;;17.56;100.00
19890;BME280;10107;51.198;6.824;2023-05-07T18:13:08;-21775.31;;;17.54;100.00
19890;BME280;10107;51.198;6.824;2023-05-07T18:17:10;-21774.00;;;17.49;100.00
19890;BME280;10107;51.198;6.824;2023-05-07T18:21:11;-21771.50;;;17.39;100.00
19890;BME280;10107;51.198;6.824;2023-05-07T18:25:18;-21767.59;;;17.24;100.00
19890;BME280;10107;51.198;6.824;2023-05-07T18:29:21;-21766.28;;;17.18;100.00
19890;BME280;10107;51.198;6.824;2023-05-07T18:33:23;-21763.78;;;17.09;100.00
19890;BME280;10107;51.198;6.824;2023-05-07T18:37:24;-21764.84;;;17.13;100.00
19890;BME280;10107;51.198;6.824;2023-05-07T18:41:26;-21765.63;;;17.16;100.00
19890;BME280;10107;51.198;6.824;2023-05-07T18:45:30;-21763.38;;;17.07;100.00
19890;BME280;10107;51.198;6.824;2023-05-07T18:49:33;-21762.47;;;17.03;100.00
19890;BME280;10107;51.198;6.824;2023-05-07T18:53:35;-21759.97;;;16.94;100.00
19890;BME280;10107;51.198;6.824;2023-05-07T18:57:37;-21758.41;;;16.88;100.00
19890;BME280;10107;51.198;6.824;2023-05-07T19:01:40;-21756.44;;;16.80;100.00
19890;BME280;10107;51.198;6.824;2023-05-07T19:05:42;-21755.91;;;16.78;100.00
19890;BME280;10107;51.198;6.824;2023-05-07T19:09:47;-21754.88;;;16.74;100.00
19890;BME280;10107;51.198;6.824;2023-05-07T19:13:48;-21753.56;;;16.69;100.00
19890;BME280;10107;51.198;6.824;2023-05-07T19:17:51;-21752.91;;;16.66;100.00
19890;BME280;10107;51.198;6.824;2023-05-07T19:21:53;-21751.19;;;16.59;100.00
19890;BME280;10107;51.198;6.824;2023-05-07T19:25:55;-21751.31;;;16.60;100.00
19890;BME280;10107;51.198;6.824;2023-05-07T19:29:56;-21750.28;;;16.56;100.00
19890;BME280;10107;51.198;6.824;2023-05-07T19:34:00;-21749.75;;;16.54;100.00
19890;BME280;10107;51.198;6.824;2023-05-07T19:38:01;-21748.97;;;16.51;100.00
19890;BME280;10107;51.198;6.824;2023-05-07T19:42:05;-21747.66;;;16.46;100.00
19890;BME280;10107;51.198;6.824;2023-05-07T19:46:06;-21746.59;;;16.41;100.00
19890;BME280;10107;51.198;6.824;2023-05-07T19:50:10;-21745.16;;;16.36;100.00
19890;BME280;10107;51.198;6.824;2023-05-07T19:54:12;-21743.06;;;16.28;100.00
19890;BME280;10107;51.198;6.824;2023-05-07T19:58:13;-21742.16;;;16.24;100.00
19890;BME280;10107;51.198;6.824;2023-05-07T20:02:16;-21740.84;;;16.19;100.00
19890;BME280;10107;51.198;6.824;2023-05-07T20:06:19;-21739.25;;;16.13;100.00
19890;BME280;10107;51.198;6.824;2023-05-07T20:10:22;-21738.34;;;16.09;100.00
19890;BME280;10107;51.198;6.824;2023-05-07T20:14:25;-21737.28;;;16.05;100.00
19890;BME280;10107;51.198;6.824;2023-05-07T20:18:27;-21736.38;;;16.01;100.00
19890;BME280;10107;51.198;6.824;2023-05-07T20:22:30;-21735.31;;;15.97;100.00
19890;BME280;10107;51.198;6.824;2023-05-07T20:26:32;-21734.53;;;15.94;100.00
19890;BME280;10107;51.198;6.824;2023-05-07T20:30:34;-21734.41;;;15.94;100.00
19890;BME280;10107;51.198;6.824;2023-05-07T20:34:35;-21733.63;;;15.91;100.00
19890;BME280;10107;51.198;6.824;2023-05-07T20:38:38;-21733.47;;;15.90;100.00
19890;BME280;10107;51.198;6.824;2023-05-07T20:42:40;-21732.69;;;15.87;100.00
19890;BME280;10107;51.198;6.824;2023-05-07T20:46:43;-21733.09;;;15.89;100.00
19890;BME280;10107;51.198;6.824;2023-05-07T20:50:44;-21733.22;;;15.89;100.00
19890;BME280;10107;51.198;6.824;2023-05-07T20:54:47;-21733.09;;;15.89;100.00
19890;BME280;10107;51.198;6.824;2023-05-07T20:58:49;-21732.81;;;15.88;100.00
19890;BME280;10107;51.198;6.824;2023-05-07T21:02:51;-21732.69;;;15.87;100.00
19890;BME280;10107;51.198;6.824;2023-05-07T21:06:53;-21731.78;;;15.83;100.00